createdAt,value
2022-07-30T00:02:18.034Z,27.10
2022-07-30T00:07:20.746Z,27.03
2022-07-30T00:12:23.452Z,27.02
2022-07-30T00:17:27.740Z,26.95
2022-07-30T00:22:31.705Z,26.92
2022-07-30T00:27:35.286Z,26.87
2022-07-30T00:32:39.384Z,26.81
2022-07-30T00:37:42.155Z,26.82
2022-07-30T00:42:45.925Z,26.77
2022-07-30T00:47:50.052Z,26.73
2022-07-30T00:52:52.791Z,26.69
2022-07-30T00:57:55.571Z,26.67
2022-07-30T01:02:59.851Z,26.66
2022-07-30T01:08:02.706Z,26.61
2022-07-30T01:13:05.377Z,26.57
2022-07-30T01:19:03.427Z,26.57
2022-07-30T01:24:13.122Z,26.51
2022-07-30T01:29:17.321Z,26.46
2022-07-30T01:34:21.113Z,26.43
2022-07-30T01:39:23.844Z,26.41
2022-07-30T01:44:28.558Z,26.39
2022-07-30T01:49:31.418Z,26.34
2022-07-30T01:54:34.812Z,26.30
2022-07-30T01:59:39.033Z,26.27
2022-07-30T02:04:41.784Z,26.27
2022-07-30T02:09:52.254Z,26.25
2022-07-30T02:15:03.439Z,26.21
2022-07-30T02:20:09.921Z,26.16
2022-07-30T02:25:15.092Z,26.13
2022-07-30T02:30:19.148Z,26.11
2022-07-30T02:35:23.741Z,26.09
2022-07-30T02:40:26.598Z,26.09
2022-07-30T02:45:30.806Z,26.06
2022-07-30T02:50:33.926Z,26.08
2022-07-30T02:55:37.042Z,26.07
2022-07-30T03:00:41.418Z,26.05
2022-07-30T03:05:44.824Z,26.02
2022-07-30T03:10:47.606Z,26.00
2022-07-30T03:15:52.151Z,25.99
2022-07-30T03:20:57.786Z,25.93
2022-07-30T03:26:01.702Z,25.92
2022-07-30T03:31:06.837Z,25.91
2022-07-30T03:36:10.017Z,25.90
2022-07-30T03:41:13.048Z,25.88
2022-07-30T03:46:19.003Z,25.85
2022-07-30T03:51:25.099Z,25.83
2022-07-30T03:56:29.676Z,25.80
2022-07-30T04:01:40.423Z,25.76
2022-07-30T04:07:01.155Z,25.72
2022-07-30T04:12:05.474Z,25.73
2022-07-30T04:17:13.229Z,25.72
2022-07-30T04:22:18.284Z,25.70
2022-07-30T04:27:21.862Z,25.71
2022-07-30T04:32:26.340Z,25.70
2022-07-30T04:37:58.074Z,25.68
2022-07-30T04:43:01.575Z,25.72
2022-07-30T04:48:06.599Z,25.73
2022-07-30T04:53:27.709Z,25.71
2022-07-30T04:58:34.637Z,25.69
2022-07-30T05:03:39.844Z,25.69
2022-07-30T05:08:42.802Z,25.68
2022-07-30T05:13:48.772Z,25.65
2022-07-30T05:18:57.171Z,25.65
2022-07-30T05:24:00.096Z,25.64
2022-07-30T05:29:19.903Z,25.64
2022-07-30T05:34:36.922Z,25.64
2022-07-30T05:39:40.962Z,25.62
2022-07-30T05:45:27.973Z,25.60
2022-07-30T05:50:32.262Z,25.63
2022-07-30T05:55:35.574Z,25.63
2022-07-30T06:00:57.753Z,25.61
2022-07-30T06:06:06.297Z,25.64
2022-07-30T06:11:09.833Z,25.63
2022-07-30T06:16:15.478Z,25.64
2022-07-30T06:21:19.881Z,25.63
2022-07-30T06:26:41.895Z,25.61
2022-07-30T06:31:46.215Z,25.61
2022-07-30T06:36:50.441Z,25.65
2022-07-30T06:41:57.006Z,25.61
2022-07-30T06:47:07.816Z,25.61
2022-07-30T06:52:18.352Z,25.64
2022-07-30T06:57:25.226Z,25.64
2022-07-30T07:02:28.740Z,25.59
2022-07-30T07:07:58.172Z,25.60
2022-07-30T07:13:03.698Z,25.47
2022-07-30T07:18:12.565Z,24.25
2022-07-30T07:23:19.919Z,24.70
2022-07-30T07:28:33.214Z,24.49
2022-07-30T07:33:36.977Z,23.82
2022-07-30T07:38:41.187Z,23.97
2022-07-30T07:43:44.161Z,23.92
2022-07-30T07:48:51.894Z,23.88
2022-07-30T07:54:20.545Z,23.48
2022-07-30T07:59:36.010Z,23.42
2022-07-30T08:04:46.651Z,23.54
2022-07-30T08:09:50.869Z,23.68
2022-07-30T08:15:03.109Z,23.69
2022-07-30T08:20:25.000Z,24.14
2022-07-30T08:25:29.595Z,24.22
2022-07-30T08:30:32.551Z,23.89
2022-07-30T08:35:36.285Z,23.69
2022-07-30T08:40:47.804Z,24.10
2022-07-30T08:45:51.944Z,23.54
2022-07-30T08:51:08.054Z,23.33
2022-07-30T08:56:12.683Z,23.82
2022-07-30T09:01:15.937Z,23.69
2022-07-30T09:06:18.720Z,23.76
2022-07-30T09:11:22.847Z,23.19
2022-07-30T09:16:27.396Z,22.79
2022-07-30T09:21:32.848Z,21.85
2022-07-30T09:27:01.384Z,21.65
2022-07-30T09:32:22.994Z,21.59
2022-07-30T09:37:44.204Z,21.16
2022-07-30T09:43:24.475Z,20.64
2022-07-30T09:48:33.364Z,20.47
2022-07-30T09:53:37.179Z,20.36
2022-07-30T09:58:45.624Z,20.13
2022-07-30T10:03:50.237Z,20.09
2022-07-30T10:09:13.852Z,19.93
2022-07-30T10:14:24.009Z,20.01
2022-07-30T10:19:39.943Z,19.84
2022-07-30T10:25:03.424Z,19.98
2022-07-30T10:30:29.456Z,20.12
2022-07-30T10:35:37.951Z,20.06
2022-07-30T10:40:43.540Z,19.86
2022-07-30T10:45:51.507Z,19.78
2022-07-30T10:50:55.237Z,19.74
2022-07-30T10:56:11.897Z,19.72
2022-07-30T11:01:18.546Z,19.60
2022-07-30T11:06:28.443Z,19.70
2022-07-30T11:12:01.584Z,19.60
2022-07-30T11:17:08.739Z,19.62
2022-07-30T11:22:25.619Z,19.73
2022-07-30T11:27:38.992Z,19.78
2022-07-30T11:32:45.925Z,19.67
2022-07-30T11:38:02.201Z,19.65
2022-07-30T11:43:34.999Z,19.62
2022-07-30T11:48:42.825Z,19.56
2022-07-30T11:53:46.089Z,19.65
2022-07-30T11:58:48.963Z,19.70
2022-07-30T12:03:53.107Z,19.78
2022-07-30T12:08:58.674Z,19.89
2022-07-30T12:14:02.184Z,20.00
2022-07-30T12:19:09.612Z,20.10
2022-07-30T12:24:12.542Z,20.12
2022-07-30T12:29:15.548Z,20.16
2022-07-30T12:34:23.241Z,20.24
2022-07-30T12:39:27.953Z,20.32
2022-07-30T12:44:40.609Z,20.29
2022-07-30T12:49:49.452Z,20.39
2022-07-30T12:55:06.563Z,20.37
2022-07-30T13:00:10.563Z,20.39
2022-07-30T13:05:14.672Z,20.36
2022-07-30T13:10:18.818Z,20.48
2022-07-30T13:15:22.065Z,20.49
2022-07-30T13:20:26.446Z,20.62
2022-07-30T13:25:38.819Z,20.74
2022-07-30T13:30:43.424Z,20.64
2022-07-30T13:35:47.542Z,20.67
2022-07-30T13:40:50.443Z,20.71
2022-07-30T13:45:53.340Z,20.73
2022-07-30T13:50:57.547Z,20.74
2022-07-30T13:56:00.390Z,20.74
2022-07-30T14:01:03.229Z,20.82
2022-07-30T14:06:10.828Z,20.79
2022-07-30T14:11:14.170Z,20.78
2022-07-30T14:16:35.699Z,20.80
2022-07-30T14:21:41.910Z,20.83
2022-07-30T14:26:44.671Z,20.71
2022-07-30T14:31:47.437Z,20.73
2022-07-30T14:36:51.715Z,20.74
2022-07-30T14:41:55.914Z,20.71
2022-07-30T14:46:58.912Z,20.80
2022-07-30T14:52:03.043Z,20.87
2022-07-30T14:57:08.536Z,20.79
2022-07-30T15:02:11.640Z,20.80
2022-07-30T15:07:15.896Z,20.80
2022-07-30T15:12:26.570Z,20.78
2022-07-30T15:17:29.860Z,20.77
2022-07-30T15:22:34.060Z,20.95
2022-07-30T15:27:37.013Z,20.94
2022-07-30T15:32:39.986Z,20.95
2022-07-30T15:37:44.095Z,21.01
2022-07-30T15:42:46.841Z,21.08
2022-07-30T15:47:49.725Z,21.11
2022-07-30T15:52:54.133Z,21.10
2022-07-30T15:57:57.518Z,21.06
2022-07-30T16:03:00.315Z,21.14
2022-07-30T16:08:04.495Z,21.24
2022-07-30T16:13:07.393Z,21.35
2022-07-30T16:18:10.383Z,21.45
2022-07-30T16:23:18.238Z,23.00
2022-07-30T16:28:23.990Z,23.15
2022-07-30T16:33:26.948Z,22.81
2022-07-30T16:38:31.117Z,22.83
2022-07-30T16:43:34.112Z,22.51
2022-07-30T16:48:37.606Z,22.19
2022-07-30T16:53:41.723Z,22.17
2022-07-30T16:58:44.730Z,22.12
2022-07-30T17:03:47.487Z,21.99
2022-07-30T17:08:51.642Z,22.01
2022-07-30T17:13:54.482Z,22.02
2022-07-30T17:18:57.339Z,22.72
2022-07-30T17:24:01.679Z,23.04
2022-07-30T17:29:04.490Z,23.31
2022-07-30T17:34:08.884Z,23.55
2022-07-30T17:39:18.163Z,23.72
2022-07-30T17:44:35.951Z,23.87
2022-07-30T17:49:38.878Z,24.01
2022-07-30T17:54:43.339Z,24.12
2022-07-30T17:59:46.168Z,24.19
2022-07-30T18:04:52.166Z,24.32
2022-07-30T18:10:00.088Z,24.46
2022-07-30T18:15:02.926Z,24.62
2022-07-30T18:20:06.970Z,24.82
2022-07-30T18:25:18.857Z,24.93
2022-07-30T18:30:22.268Z,24.94
2022-07-30T18:35:25.122Z,24.92
2022-07-30T18:40:29.486Z,24.93
2022-07-30T18:45:36.865Z,24.93
2022-07-30T18:50:40.242Z,24.94
2022-07-30T18:55:44.453Z,25.00
2022-07-30T19:00:47.323Z,25.01
2022-07-30T19:05:50.213Z,25.04
2022-07-30T19:10:54.403Z,25.05
2022-07-30T19:15:57.262Z,25.04
2022-07-30T19:21:00.261Z,25.08
2022-07-30T19:26:05.897Z,25.10
2022-07-30T19:31:08.746Z,25.10
2022-07-30T19:36:12.830Z,25.10
2022-07-30T19:41:16.960Z,25.10
2022-07-30T19:46:21.693Z,25.12
2022-07-30T19:52:10.707Z,25.13
2022-07-30T19:56:51.171Z,25.12
2022-07-30T20:01:55.702Z,25.15
2022-07-30T20:07:00.047Z,25.17
2022-07-30T20:12:04.638Z,25.20
2022-07-30T20:17:08.081Z,25.30
2022-07-30T20:22:11.218Z,25.20
2022-07-30T20:27:35.995Z,25.25
2022-07-30T20:38:05.018Z,25.24
2022-07-30T20:43:11.706Z,25.25
2022-07-30T20:48:17.315Z,25.25
2022-07-30T20:53:33.711Z,25.26
2022-07-30T20:58:41.048Z,25.30
2022-07-30T21:03:44.094Z,25.30
2022-07-30T21:08:51.071Z,25.28
2022-07-30T21:13:56.053Z,25.28
2022-07-30T21:18:58.847Z,25.33
2022-07-30T21:24:01.652Z,25.31
2022-07-30T21:29:08.208Z,25.32
2022-07-30T21:34:11.095Z,25.34
2022-07-30T21:39:14.535Z,25.34
2022-07-30T21:44:18.649Z,25.32
2022-07-30T21:49:21.522Z,25.41
2022-07-30T21:59:48.382Z,25.52
2022-07-30T22:04:51.146Z,25.49
2022-07-30T22:09:53.898Z,25.51
2022-07-30T22:14:58.025Z,25.47
2022-07-30T22:20:00.867Z,25.44
2022-07-30T22:25:09.431Z,25.37
2022-07-30T22:30:14.516Z,25.32
2022-07-30T22:35:17.258Z,25.26
2022-07-30T22:40:24.703Z,25.19
2022-07-30T22:45:47.422Z,25.16
2022-07-30T22:50:52.101Z,25.09
2022-07-30T22:55:55.537Z,25.05
2022-07-30T23:01:00.228Z,25.02
2022-07-30T23:06:03.087Z,25.01
2022-07-30T23:11:06.071Z,24.98
2022-07-30T23:12:18.142Z,25.21
2022-07-30T23:12:32.859Z,25.50
2022-07-30T23:16:10.571Z,24.98
2022-07-30T23:21:13.364Z,24.99
2022-07-30T23:26:16.206Z,24.99
2022-07-30T23:31:22.970Z,25.02
2022-07-30T23:36:29.199Z,24.99
2022-07-30T23:41:31.916Z,25.04
2022-07-30T23:46:37.103Z,25.02
2022-07-30T23:51:39.935Z,25.03
2022-07-30T23:56:42.801Z,25.00
